Time;durP1;ratioP1;P1;durP2;ratioP2;P2;SDS_P1;SDS_P2;PMS_P1;PMS_P2;Temp;Humidity;BMP_temperature;BMP_pressure;BME280_temperature;BME280_humidity;BME280_pressure;Samples;Min_cycle;Max_cycle;Signal;HPM_P1;HPM_P2
2024/01/16 00:01:20;;;;;;;7.90;2.10;;;-0.20;99.90;;;;;;4990371;28;20116;-74
2024/01/16 00:03:46;;;;;;;5.57;2.10;;;-0.20;99.90;;;;;;4995258;28;20045;-74
2024/01/16 00:06:12;;;;;;;8.70;1.95;;;-0.20;99.90;;;;;;4995943;28;20518;-74
2024/01/16 00:08:38;;;;;;;8.38;1.98;;;-0.20;99.90;;;;;;4977974;28;20041;-74
2024/01/16 00:11:04;;;;;;;13.52;2.17;;;-0.20;99.90;;;;;;4996631;28;20092;-74
2024/01/16 00:13:31;;;;;;;10.18;2.20;;;-0.30;99.90;;;;;;5024557;28;20129;-74
2024/01/16 00:15:57;;;;;;;9.82;1.95;;;-0.30;99.90;;;;;;4993189;28;20052;-74
2024/01/16 00:18:23;;;;;;;9.00;1.95;;;-0.30;99.90;;;;;;4997835;28;20045;-74
2024/01/16 00:20:49;;;;;;;12.10;2.20;;;-0.20;99.90;;;;;;4990707;28;20048;-74
2024/01/16 00:23:15;;;;;;;10.52;2.40;;;-0.30;99.90;;;;;;4996038;28;20052;-74
2024/01/16 00:25:41;;;;;;;15.30;2.88;;;-0.20;99.90;;;;;;4991145;28;20121;-74
2024/01/16 00:28:06;;;;;;;9.05;2.42;;;-0.10;99.90;;;;;;4981486;28;20042;-74
2024/01/16 00:30:33;;;;;;;10.07;2.20;;;-0.10;99.90;;;;;;4996298;28;20100;-74
2024/01/16 00:32:59;;;;;;;8.18;2.00;;;0.00;99.90;;;;;;4997188;28;20096;-74
2024/01/16 00:35:25;;;;;;;8.85;2.58;;;0.20;99.90;;;;;;4981821;28;20441;-74
2024/01/16 00:37:52;;;;;;;5.88;1.90;;;0.10;99.90;;;;;;5010511;28;20059;-73
2024/01/16 00:40:17;;;;;;;7.30;2.28;;;0.10;99.90;;;;;;4992207;28;20269;-73
2024/01/16 00:42:43;;;;;;;8.15;2.08;;;0.00;99.90;;;;;;4992056;28;20026;-73
2024/01/16 00:45:09;;;;;;;7.57;1.90;;;0.10;99.90;;;;;;4996085;28;20049;-74
2024/01/16 00:47:35;;;;;;;4.70;1.48;;;0.00;99.90;;;;;;4983986;28;20056;-74
2024/01/16 00:50:01;;;;;;;4.78;1.42;;;0.10;99.90;;;;;;4980460;28;20176;-73
2024/01/16 00:52:28;;;;;;;8.63;1.58;;;0.10;99.90;;;;;;5011995;28;20051;-73
2024/01/16 00:54:53;;;;;;;5.40;1.40;;;0.10;99.90;;;;;;4984374;28;20124;-73
2024/01/16 00:57:19;;;;;;;6.05;1.33;;;0.10;99.90;;;;;;4997893;28;20124;-73
2024/01/16 00:59:48;;;;;;;5.90;1.20;;;0.00;99.90;;;;;;4981297;28;20094;-73
2024/01/16 01:02:14;;;;;;;7.15;1.52;;;0.00;99.90;;;;;;4994118;28;20045;-73
2024/01/16 01:04:43;;;;;;;6.30;1.55;;;0.10;99.90;;;;;;4979571;28;20046;-74
2024/01/16 01:07:09;;;;;;;6.82;1.60;;;0.10;99.90;;;;;;4987566;28;20038;-73
2024/01/16 01:09:34;;;;;;;4.97;1.25;;;0.10;99.90;;;;;;5008084;28;20422;-73
2024/01/16 01:12:01;;;;;;;10.52;1.55;;;0.20;99.90;;;;;;5007450;28;20216;-73
2024/01/16 01:14:29;;;;;;;5.15;1.20;;;0.40;99.90;;;;;;5026756;28;20038;-73
2024/01/16 01:16:54;;;;;;;9.98;1.58;;;0.30;99.90;;;;;;4978367;28;20046;-73
2024/01/16 01:19:20;;;;;;;9.13;1.80;;;0.40;99.90;;;;;;4994340;28;20029;-73
2024/01/16 01:21:46;;;;;;;5.53;1.52;;;0.40;99.90;;;;;;4980320;28;20061;-73
2024/01/16 01:24:12;;;;;;;4.85;1.30;;;0.30;99.90;;;;;;5025957;28;20041;-73
2024/01/16 01:26:37;;;;;;;7.55;1.63;;;0.10;99.90;;;;;;4992153;28;20037;-73
2024/01/16 01:29:03;;;;;;;8.18;1.50;;;0.10;99.90;;;;;;4975933;28;20382;-73
2024/01/16 01:31:29;;;;;;;7.93;1.60;;;0.20;99.90;;;;;;4979568;28;20038;-74
2024/01/16 01:33:54;;;;;;;10.98;1.90;;;-0.10;99.90;;;;;;4988771;28;20038;-73
2024/01/16 01:36:20;;;;;;;8.85;1.40;;;0.00;99.90;;;;;;4989314;28;20062;-73
2024/01/16 01:38:46;;;;;;;7.82;1.73;;;0.00;99.90;;;;;;5019291;28;20057;-73
2024/01/16 01:41:12;;;;;;;7.68;1.85;;;-0.20;99.90;;;;;;4993005;28;20095;-73
2024/01/16 01:43:38;;;;;;;9.30;1.73;;;-0.20;99.90;;;;;;4979019;28;20042;-73
2024/01/16 01:46:19;;;;;;;7.97;1.55;;;-0.30;99.90;;;;;;4990614;28;20132;-73
2024/01/16 01:48:47;;;;;;;6.28;1.80;;;-0.30;99.90;;;;;;4994412;28;20042;-73
2024/01/16 01:51:14;;;;;;;10.13;2.20;;;-0.50;99.90;;;;;;4977170;28;20152;-73
2024/01/16 01:53:43;;;;;;;11.57;1.80;;;-0.50;99.90;;;;;;4996719;28;20128;-73
2024/01/16 01:56:14;;;;;;;9.60;1.70;;;-0.40;99.90;;;;;;4993193;28;20042;-73
2024/01/16 01:58:43;;;;;;;8.73;1.77;;;-0.30;99.90;;;;;;4993762;28;20069;-73
2024/01/16 02:01:10;;;;;;;7.28;1.75;;;-0.50;99.90;;;;;;4990484;28;20042;-73
2024/01/16 02:03:42;;;;;;;8.57;2.08;;;-0.40;99.90;;;;;;4989884;28;20048;-73
2024/01/16 02:06:09;;;;;;;5.03;1.73;;;-0.30;99.90;;;;;;4990081;28;20041;-73
2024/01/16 02:08:35;;;;;;;9.75;1.70;;;-0.10;99.90;;;;;;4993626;28;20140;-73
2024/01/16 02:11:00;;;;;;;7.65;1.85;;;-0.10;99.90;;;;;;4993555;28;20225;-73
2024/01/16 02:13:26;;;;;;;7.10;1.70;;;-0.10;99.90;;;;;;4987679;28;20561;-73
2024/01/16 02:15:52;;;;;;;10.88;1.60;;;-0.10;99.90;;;;;;4987645;28;20047;-73
2024/01/16 02:18:18;;;;;;;8.57;1.60;;;0.10;99.90;;;;;;4995123;28;20050;-73
2024/01/16 02:20:45;;;;;;;12.13;2.00;;;0.20;99.90;;;;;;5030643;28;20034;-73
2024/01/16 02:23:14;;;;;;;6.25;1.80;;;0.10;99.90;;;;;;4994675;28;20042;-73
2024/01/16 02:25:41;;;;;;;9.73;2.15;;;0.10;99.90;;;;;;4982316;28;20517;-73
2024/01/16 02:28:07;;;;;;;5.07;1.80;;;0.20;99.90;;;;;;4997450;28;20041;-73
2024/01/16 02:30:33;;;;;;;10.35;2.08;;;0.10;99.90;;;;;;4990832;28;20045;-73
2024/01/16 02:32:59;;;;;;;4.63;1.48;;;0.10;99.90;;;;;;4996762;28;20046;-73
2024/01/16 02:35:25;;;;;;;6.82;1.65;;;0.00;99.90;;;;;;4997585;28;20039;-73
2024/01/16 02:37:51;;;;;;;9.02;1.92;;;0.10;99.90;;;;;;4997771;28;20120;-73
2024/01/16 02:40:17;;;;;;;9.13;1.63;;;0.00;99.90;;;;;;4992279;28;20096;-73
2024/01/16 02:42:42;;;;;;;7.00;2.00;;;0.00;99.90;;;;;;4999584;28;20512;-73
2024/01/16 02:45:09;;;;;;;4.78;1.33;;;0.00;99.90;;;;;;5021620;28;20130;-73
2024/01/16 02:47:35;;;;;;;10.02;1.80;;;0.00;99.90;;;;;;5028344;28;20133;-73
2024/01/16 02:50:01;;;;;;;7.70;1.60;;;-0.10;99.90;;;;;;4995724;28;20125;-73
2024/01/16 02:52:27;;;;;;;8.40;1.80;;;-0.20;99.90;;;;;;5023749;28;20057;-73
2024/01/16 02:54:52;;;;;;;7.30;1.70;;;-0.40;99.90;;;;;;5004213;28;20033;-73
2024/01/16 02:57:18;;;;;;;7.65;2.35;;;-0.40;99.90;;;;;;4991270;28;20502;-73
2024/01/16 02:59:44;;;;;;;8.35;1.70;;;-0.40;99.90;;;;;;4980303;28;20393;-73
2024/01/16 03:02:11;;;;;;;9.27;1.80;;;-0.60;99.90;;;;;;4993735;28;20121;-73
2024/01/16 03:04:37;;;;;;;6.45;1.65;;;-0.50;99.90;;;;;;4998490;28;20142;-73
2024/01/16 03:07:03;;;;;;;11.52;1.88;;;-0.60;99.90;;;;;;4993818;28;20041;-72
2024/01/16 03:09:29;;;;;;;6.50;1.80;;;-0.60;99.90;;;;;;4982225;28;20046;-72
2024/01/16 03:11:55;;;;;;;7.40;1.60;;;-0.70;99.90;;;;;;4996966;28;20077;-72
2024/01/16 03:14:21;;;;;;;11.52;2.13;;;-0.70;99.90;;;;;;5009080;28;20054;-72
2024/01/16 03:16:46;;;;;;;6.38;1.70;;;-0.70;99.90;;;;;;4992628;28;20045;-72
2024/01/16 03:19:13;;;;;;;8.95;2.03;;;-0.70;99.90;;;;;;5000733;28;21830;-72
2024/01/16 03:21:39;;;;;;;7.32;1.60;;;-0.70;99.90;;;;;;4998037;28;20082;-72
2024/01/16 03:24:10;;;;;;;8.50;1.55;;;-0.80;99.90;;;;;;5000722;28;20120;-72
2024/01/16 03:26:37;;;;;;;8.73;1.80;;;-0.80;99.90;;;;;;4997688;28;20038;-72
2024/01/16 03:29:03;;;;;;;12.27;1.92;;;-0.90;99.90;;;;;;4992115;28;20054;-72
2024/01/16 03:31:28;;;;;;;9.90;1.73;;;-0.90;99.90;;;;;;4992017;28;20042;-72
2024/01/16 03:33:54;;;;;;;12.93;2.35;;;-1.00;99.90;;;;;;4992765;28;20041;-72
2024/01/16 03:36:20;;;;;;;11.23;1.83;;;-0.90;99.90;;;;;;4991105;28;20057;-72
2024/01/16 03:38:46;;;;;;;7.55;1.60;;;-1.00;99.90;;;;;;5011817;28;20129;-72
2024/01/16 03:41:12;;;;;;;8.32;1.77;;;-1.00;99.90;;;;;;4997115;28;21111;-72
2024/01/16 03:43:38;;;;;;;10.68;1.80;;;-1.10;99.90;;;;;;5025435;28;20508;-72
2024/01/16 03:46:04;;;;;;;14.40;2.33;;;-1.10;99.90;;;;;;4992215;28;20060;-73
2024/01/16 03:48:30;;;;;;;6.07;1.80;;;-0.90;99.90;;;;;;4993799;28;20054;-72
2024/01/16 03:50:56;;;;;;;9.48;2.03;;;-1.00;99.90;;;;;;5012644;28;20199;-73
2024/01/16 03:53:22;;;;;;;9.60;2.00;;;-1.00;99.90;;;;;;5012361;28;20425;-73
2024/01/16 03:55:49;;;;;;;11.75;2.08;;;-1.00;99.90;;;;;;4991793;28;20041;-72
2024/01/16 03:58:16;;;;;;;15.45;2.67;;;-0.90;99.90;;;;;;4982700;28;20033;-72
2024/01/16 04:00:42;;;;;;;9.13;2.42;;;-0.90;99.90;;;;;;4977272;28;20038;-72
2024/01/16 04:03:08;;;;;;;14.02;2.00;;;-0.90;99.90;;;;;;5016359;28;20772;-72
2024/01/16 04:05:34;;;;;;;5.30;1.60;;;-0.90;99.90;;;;;;4996662;28;20235;-72
2024/01/16 04:08:00;;;;;;;18.50;2.00;;;-0.90;99.90;;;;;;4998270;28;20042;-72
2024/01/16 04:10:26;;;;;;;8.20;1.70;;;-0.80;99.90;;;;;;4993495;28;20390;-73
2024/01/16 04:12:52;;;;;;;14.32;1.70;;;-0.90;99.90;;;;;;4981391;28;20124;-73
2024/01/16 04:15:18;;;;;;;8.82;1.77;;;-0.80;99.90;;;;;;4992772;28;20037;-73
2024/01/16 04:17:44;;;;;;;9.85;2.33;;;-0.70;99.90;;;;;;4980397;28;20372;-72
2024/01/16 04:20:10;;;;;;;9.25;2.00;;;-0.80;99.90;;;;;;4994565;28;20033;-72
2024/01/16 04:22:36;;;;;;;6.22;1.70;;;-0.80;99.90;;;;;;4997273;28;20088;-72
2024/01/16 04:25:04;;;;;;;7.00;1.92;;;-0.70;99.90;;;;;;5011040;28;20482;-73
2024/01/16 04:27:33;;;;;;;9.68;2.00;;;-0.70;99.90;;;;;;4995376;28;20400;-72
2024/01/16 04:29:59;;;;;;;7.32;1.65;;;-0.70;99.90;;;;;;5027141;28;20497;-72
2024/01/16 04:32:25;;;;;;;6.35;1.60;;;-0.70;99.90;;;;;;5017773;28;20037;-72
2024/01/16 04:34:51;;;;;;;10.65;1.90;;;-0.70;99.90;;;;;;4995157;28;20053;-73
2024/01/16 04:37:16;;;;;;;8.93;1.98;;;-0.70;99.90;;;;;;5006276;28;20129;-72
2024/01/16 04:39:42;;;;;;;11.15;1.85;;;-0.70;99.90;;;;;;4994501;28;20045;-72
2024/01/16 04:42:09;;;;;;;9.25;1.92;;;-0.60;99.90;;;;;;5012068;28;20112;-72
2024/01/16 04:44:34;;;;;;;10.35;2.22;;;-0.60;99.90;;;;;;4995911;28;20602;-72
2024/01/16 04:47:00;;;;;;;10.77;1.77;;;-0.50;99.90;;;;;;4993907;28;20045;-72
2024/01/16 04:49:26;;;;;;;10.50;1.80;;;-0.50;99.90;;;;;;4991548;28;20053;-72
2024/01/16 04:51:52;;;;;;;13.95;2.10;;;-0.40;99.90;;;;;;4993641;28;20213;-73
2024/01/16 04:54:17;;;;;;;7.82;1.55;;;-0.40;99.90;;;;;;4992509;28;20069;-72
2024/01/16 04:56:43;;;;;;;8.63;1.80;;;-0.40;99.90;;;;;;4983756;28;20042;-72
2024/01/16 04:59:09;;;;;;;6.20;1.67;;;-0.30;99.90;;;;;;4994288;28;20144;-73
2024/01/16 05:01:34;;;;;;;8.93;1.52;;;-0.30;99.90;;;;;;5005193;28;20398;-73
2024/01/16 05:04:00;;;;;;;12.73;2.17;;;-0.40;99.90;;;;;;5010106;28;20042;-72
2024/01/16 05:06:26;;;;;;;7.75;2.08;;;-0.50;99.90;;;;;;4987817;28;20064;-72
2024/01/16 05:08:52;;;;;;;7.70;1.70;;;-0.50;99.90;;;;;;4979728;28;20552;-72
2024/01/16 05:11:18;;;;;;;8.77;1.95;;;-0.50;99.90;;;;;;4992791;28;20045;-72
2024/01/16 05:13:44;;;;;;;11.82;1.83;;;-0.50;99.90;;;;;;4985736;28;20567;-72
2024/01/16 05:16:10;;;;;;;9.23;1.73;;;-0.50;99.90;;;;;;5020246;28;20042;-72
2024/01/16 05:18:36;;;;;;;8.80;1.80;;;-0.50;99.90;;;;;;4996500;28;20088;-72
2024/01/16 05:21:02;;;;;;;7.18;2.00;;;-0.40;99.90;;;;;;4979860;28;20054;-72
2024/01/16 05:23:31;;;;;;;11.48;1.75;;;-0.40;99.90;;;;;;4986515;28;20075;-72
2024/01/16 05:25:57;;;;;;;11.48;1.88;;;-0.30;99.90;;;;;;4996237;28;20489;-72
2024/01/16 05:28:23;;;;;;;8.90;1.90;;;-0.30;99.90;;;;;;4993180;28;20053;-72
2024/01/16 05:30:48;;;;;;;8.07;2.50;;;-0.30;99.90;;;;;;4991046;28;20049;-72
2024/01/16 05:33:14;;;;;;;11.27;2.20;;;-0.30;99.90;;;;;;4995681;28;20045;-72
2024/01/16 05:35:40;;;;;;;9.60;1.77;;;-0.30;99.90;;;;;;4990999;28;20089;-72
2024/01/16 05:38:06;;;;;;;9.95;2.65;;;-0.20;99.90;;;;;;4993494;28;20139;-72
2024/01/16 05:40:32;;;;;;;12.07;2.08;;;-0.20;99.90;;;;;;4987689;28;20393;-72
2024/01/16 05:42:58;;;;;;;6.93;1.67;;;-0.20;99.90;;;;;;4992795;28;20046;-72
2024/01/16 05:45:24;;;;;;;7.35;1.52;;;-0.10;99.90;;;;;;4987541;28;20398;-72
2024/01/16 05:47:51;;;;;;;7.88;2.08;;;-0.20;99.90;;;;;;4990342;28;20058;-72
2024/01/16 05:50:18;;;;;;;9.93;2.08;;;-0.10;99.90;;;;;;4980441;28;20398;-72
2024/01/16 05:52:44;;;;;;;7.43;2.00;;;-0.10;99.90;;;;;;4997923;28;20528;-72
2024/01/16 05:55:10;;;;;;;7.60;2.25;;;0.00;99.90;;;;;;5028647;28;20125;-72
2024/01/16 05:57:37;;;;;;;10.57;2.45;;;0.00;99.90;;;;;;5023861;28;20203;-72
2024/01/16 06:00:05;;;;;;;8.38;2.08;;;0.00;99.90;;;;;;5014483;28;20088;-72
2024/01/16 06:02:31;;;;;;;7.60;2.40;;;0.00;99.90;;;;;;4986627;28;20096;-72
2024/01/16 06:04:56;;;;;;;5.97;1.92;;;-0.10;99.90;;;;;;4998067;28;20077;-72
2024/01/16 06:07:23;;;;;;;8.13;1.67;;;-0.10;99.90;;;;;;4999692;28;20169;-72
2024/01/16 06:09:48;;;;;;;8.57;2.00;;;-0.20;99.90;;;;;;4986791;28;20045;-72
2024/01/16 06:12:14;;;;;;;11.52;2.40;;;-0.20;99.90;;;;;;4997444;28;20072;-72
2024/01/16 06:14:40;;;;;;;8.20;1.77;;;-0.20;99.90;;;;;;4997827;28;20046;-72
2024/01/16 06:17:06;;;;;;;9.30;2.00;;;-0.20;99.90;;;;;;4993426;28;21064;-72
2024/01/16 06:19:32;;;;;;;8.38;1.98;;;-0.30;99.90;;;;;;4999635;28;20045;-72
2024/01/16 06:21:59;;;;;;;8.75;2.38;;;-0.40;99.90;;;;;;4996026;28;20042;-72
2024/01/16 06:24:25;;;;;;;12.80;2.13;;;-0.30;99.90;;;;;;5003304;28;20038;-73
2024/01/16 06:26:51;;;;;;;9.07;1.70;;;-0.30;99.90;;;;;;4999866;28;20460;-72
2024/01/16 06:29:16;;;;;;;6.07;1.73;;;-0.30;99.90;;;;;;5020284;28;20041;-72
2024/01/16 06:31:42;;;;;;;6.65;1.73;;;-0.30;99.90;;;;;;4997519;28;20046;-72
2024/01/16 06:34:08;;;;;;;11.05;2.15;;;-0.40;99.90;;;;;;5003721;28;20038;-72
2024/01/16 06:36:34;;;;;;;10.18;2.03;;;-0.30;99.90;;;;;;4974828;28;20482;-72
2024/01/16 06:39:00;;;;;;;9.55;2.13;;;-0.30;99.90;;;;;;5030090;28;20057;-72
2024/01/16 06:41:26;;;;;;;6.63;1.67;;;-0.40;99.90;;;;;;4997619;28;20134;-72
2024/01/16 06:43:51;;;;;;;7.22;1.73;;;-0.40;99.90;;;;;;4995961;28;20048;-72
2024/01/16 06:46:17;;;;;;;11.18;2.00;;;-0.40;99.90;;;;;;4994685;28;20042;-72
2024/01/16 06:48:43;;;;;;;9.15;1.92;;;-0.40;99.90;;;;;;4993560;28;20584;-72
2024/01/16 06:51:10;;;;;;;8.20;1.98;;;-0.40;99.90;;;;;;5029390;28;20502;-72
2024/01/16 06:53:36;;;;;;;13.13;2.67;;;-0.40;99.90;;;;;;4984909;28;20077;-72
2024/01/16 06:56:03;;;;;;;8.20;1.77;;;-0.40;99.90;;;;;;4985625;28;20363;-72
2024/01/16 06:58:28;;;;;;;12.45;1.65;;;-0.40;99.90;;;;;;5015254;28;20420;-72
2024/01/16 07:00:55;;;;;;;6.63;1.88;;;-0.40;99.90;;;;;;4993656;28;20045;-72
2024/01/16 07:03:20;;;;;;;13.80;1.70;;;-0.40;99.90;;;;;;4987847;28;20119;-72
2024/01/16 07:05:46;;;;;;;15.65;2.13;;;-0.30;99.90;;;;;;4993394;28;20132;-72
2024/01/16 07:08:12;;;;;;;8.20;2.03;;;-0.20;99.90;;;;;;4993919;28;20045;-72
2024/01/16 07:10:38;;;;;;;3.80;1.55;;;-0.40;99.90;;;;;;5000956;28;20046;-72
2024/01/16 07:13:04;;;;;;;11.40;1.75;;;-0.30;99.90;;;;;;5019602;28;21214;-72
2024/01/16 07:15:29;;;;;;;9.90;1.88;;;-0.40;99.90;;;;;;5004646;28;20048;-72
2024/01/16 07:17:55;;;;;;;6.97;2.10;;;-0.30;99.90;;;;;;5002160;28;20073;-72
2024/01/16 07:20:21;;;;;;;9.73;1.60;;;-0.30;99.90;;;;;;5024069;28;20042;-72
2024/01/16 07:22:46;;;;;;;9.73;2.00;;;-0.30;99.90;;;;;;4993214;28;20128;-72
2024/01/16 07:25:12;;;;;;;4.82;2.03;;;-0.30;99.90;;;;;;4993001;28;20038;-72
2024/01/16 07:27:38;;;;;;;7.95;1.50;;;-0.30;99.90;;;;;;4982798;28;20041;-72
2024/01/16 07:30:07;;;;;;;6.78;2.20;;;-0.20;99.90;;;;;;4981218;28;20226;-72
2024/01/16 07:32:33;;;;;;;6.80;1.75;;;-0.20;99.90;;;;;;5013578;28;20042;-72
2024/01/16 07:34:59;;;;;;;6.40;1.38;;;-0.20;99.90;;;;;;4990092;28;20484;-72
2024/01/16 07:37:25;;;;;;;2.95;1.42;;;-0.20;99.90;;;;;;4984597;28;21131;-72
2024/01/16 07:39:51;;;;;;;8.43;1.55;;;-0.30;99.90;;;;;;4989858;28;20069;-72
2024/01/16 07:42:17;;;;;;;8.02;2.00;;;-0.30;99.90;;;;;;4993922;28;20046;-71
2024/01/16 07:44:43;;;;;;;6.50;2.25;;;-0.20;99.90;;;;;;4993609;28;20065;-71
2024/01/16 07:47:08;;;;;;;10.27;2.10;;;-0.20;99.90;;;;;;5008176;28;20505;-72
2024/01/16 07:49:34;;;;;;;7.82;1.85;;;-0.20;99.90;;;;;;4997062;28;20045;-72
2024/01/16 07:52:00;;;;;;;3.55;1.67;;;-0.20;99.90;;;;;;4999099;28;20316;-72
2024/01/16 07:54:26;;;;;;;5.00;1.80;;;-0.10;99.90;;;;;;4982134;28;20048;-72
2024/01/16 07:56:52;;;;;;;8.75;1.75;;;-0.10;99.90;;;;;;4996590;28;20121;-72
2024/01/16 07:59:18;;;;;;;4.95;1.50;;;-0.10;99.90;;;;;;4998336;28;20046;-72
2024/01/16 08:01:44;;;;;;;7.75;1.48;;;-0.10;99.90;;;;;;4982386;28;20034;-72
2024/01/16 08:04:10;;;;;;;8.00;1.50;;;0.00;99.90;;;;;;4987821;28;20125;-72
2024/01/16 08:06:36;;;;;;;8.85;1.70;;;-0.10;99.90;;;;;;4992478;28;20129;-72
2024/01/16 08:09:02;;;;;;;7.75;1.35;;;0.10;99.90;;;;;;4991802;28;20444;-72
2024/01/16 08:11:27;;;;;;;3.85;1.70;;;0.00;99.90;;;;;;4992754;28;20111;-72
2024/01/16 08:13:53;;;;;;;7.22;1.50;;;0.00;99.90;;;;;;4992412;28;20049;-72
2024/01/16 08:16:20;;;;;;;10.10;2.30;;;0.20;99.90;;;;;;4980887;28;20037;-72
2024/01/16 08:18:46;;;;;;;6.00;1.60;;;0.30;99.90;;;;;;4996467;28;20053;-71
2024/01/16 08:21:12;;;;;;;6.80;1.48;;;0.30;99.90;;;;;;4989702;28;20501;-71
2024/01/16 08:23:37;;;;;;;4.10;1.92;;;0.20;99.90;;;;;;4993564;28;20478;-71
2024/01/16 08:26:04;;;;;;;8.48;1.98;;;0.20;99.90;;;;;;4996409;28;20053;-71
2024/01/16 08:28:30;;;;;;;6.18;1.73;;;0.40;99.90;;;;;;4988326;28;20053;-71
2024/01/16 08:30:56;;;;;;;7.95;1.63;;;0.40;99.90;;;;;;4990467;28;20123;-71
2024/01/16 08:33:22;;;;;;;7.35;1.80;;;0.30;99.90;;;;;;5001286;28;20045;-72
2024/01/16 08:35:48;;;;;;;9.95;1.58;;;0.40;99.90;;;;;;4987785;28;20414;-72
2024/01/16 08:38:14;;;;;;;10.80;2.33;;;0.50;99.90;;;;;;4989631;28;20549;-72
2024/01/16 08:40:39;;;;;;;6.60;2.05;;;0.50;99.90;;;;;;4987360;28;20038;-72
2024/01/16 08:43:05;;;;;;;8.40;1.70;;;0.60;99.90;;;;;;4987468;28;20416;-72
2024/01/16 08:45:31;;;;;;;4.88;1.70;;;0.70;99.90;;;;;;4989311;28;20136;-71
2024/01/16 08:47:58;;;;;;;5.90;2.10;;;0.80;99.90;;;;;;4996987;28;20045;-71
2024/01/16 08:50:23;;;;;;;7.07;1.70;;;0.80;99.90;;;;;;4979910;28;20464;-72
2024/01/16 08:52:49;;;;;;;6.50;2.25;;;0.90;99.90;;;;;;4992369;28;20046;-72
2024/01/16 08:55:16;;;;;;;8.98;2.20;;;0.90;99.90;;;;;;5009930;28;20045;-72
2024/01/16 08:57:41;;;;;;;7.28;2.35;;;0.90;99.90;;;;;;4982394;28;20103;-72
2024/01/16 09:00:08;;;;;;;7.18;2.22;;;1.20;99.90;;;;;;4993840;28;20430;-72
2024/01/16 09:02:35;;;;;;;13.07;2.70;;;1.20;99.90;;;;;;4980428;28;20041;-72
2024/01/16 09:05:01;;;;;;;7.90;2.25;;;1.20;99.90;;;;;;4989244;28;20050;-72
2024/01/16 09:07:27;;;;;;;7.45;2.35;;;1.30;99.90;;;;;;4990356;28;20058;-72
2024/01/16 09:09:53;;;;;;;7.53;2.58;;;1.30;99.90;;;;;;4990180;28;20045;-72
2024/01/16 09:12:19;;;;;;;9.20;2.58;;;1.30;99.90;;;;;;5010247;28;20042;-72
2024/01/16 09:14:45;;;;;;;6.70;2.40;;;1.30;99.90;;;;;;5020689;28;20041;-72
2024/01/16 09:17:11;;;;;;;4.50;2.10;;;1.30;99.90;;;;;;4993216;28;20072;-72
2024/01/16 09:19:37;;;;;;;6.90;2.30;;;1.30;99.90;;;;;;5018792;28;20081;-72
2024/01/16 09:22:03;;;;;;;5.43;2.28;;;1.30;99.90;;;;;;4988076;28;20474;-72
2024/01/16 09:24:30;;;;;;;9.35;2.90;;;1.30;99.90;;;;;;4990784;28;20287;-72
2024/01/16 09:26:55;;;;;;;9.55;2.38;;;1.30;99.90;;;;;;4990797;28;20042;-72
2024/01/16 09:29:22;;;;;;;8.45;2.80;;;1.40;99.90;;;;;;4979452;28;20578;-72
2024/01/16 09:31:48;;;;;;;6.88;2.33;;;1.40;99.90;;;;;;5012045;28;20121;-72
2024/01/16 09:34:14;;;;;;;11.52;2.50;;;1.40;99.90;;;;;;4987686;28;20456;-72
2024/01/16 09:36:40;;;;;;;5.65;2.17;;;1.50;99.90;;;;;;4985736;28;20050;-72
2024/01/16 09:39:08;;;;;;;6.30;2.50;;;1.60;99.90;;;;;;4990723;28;20559;-72
2024/01/16 09:41:34;;;;;;;9.02;2.50;;;1.50;99.90;;;;;;5021656;28;20077;-72
2024/01/16 09:44:00;;;;;;;8.00;2.22;;;1.60;99.90;;;;;;5024157;28;20165;-72
2024/01/16 09:46:27;;;;;;;7.22;2.20;;;1.50;99.90;;;;;;5022364;28;20413;-72
2024/01/16 09:48:56;;;;;;;6.50;2.28;;;1.60;99.90;;;;;;5021119;28;20065;-72
2024/01/16 09:51:23;;;;;;;6.15;2.10;;;1.70;99.90;;;;;;5016587;28;20057;-72
2024/01/16 09:53:49;;;;;;;6.50;2.00;;;1.70;99.90;;;;;;5018999;28;20042;-73
2024/01/16 09:56:16;;;;;;;7.35;2.28;;;1.80;99.90;;;;;;4990848;28;21096;-72
2024/01/16 09:58:44;;;;;;;7.90;1.90;;;1.90;99.90;;;;;;4977520;28;20101;-73
2024/01/16 10:01:12;;;;;;;7.00;2.30;;;1.90;99.90;;;;;;4985892;28;20157;-72
2024/01/16 10:03:38;;;;;;;3.20;1.83;;;1.90;99.90;;;;;;4989149;28;20047;-73
2024/01/16 10:06:07;;;;;;;3.47;1.83;;;2.00;99.90;;;;;;4985091;28;20517;-73
2024/01/16 10:08:37;;;;;;;6.70;1.80;;;1.90;99.90;;;;;;5009002;28;20045;-73
2024/01/16 10:11:03;;;;;;;6.22;1.92;;;2.00;99.90;;;;;;4990710;28;20406;-73
2024/01/16 10:13:29;;;;;;;5.00;2.03;;;2.00;99.90;;;;;;4987487;28;20049;-73
2024/01/16 10:15:55;;;;;;;6.07;2.03;;;2.10;99.90;;;;;;5008275;28;20084;-73
2024/01/16 10:18:33;;;;;;;6.43;1.90;;;2.00;99.90;;;;;;4975575;28;20045;-73
2024/01/16 10:20:59;;;;;;;5.75;2.38;;;2.00;99.90;;;;;;4989477;28;20426;-73
2024/01/16 10:23:26;;;;;;;7.18;2.67;;;2.10;99.90;;;;;;4976180;28;20619;-74
2024/01/16 10:26:10;;;;;;;7.72;3.10;;;2.00;99.90;;;;;;5019050;28;20156;-73
2024/01/16 10:28:38;;;;;;;7.43;3.60;;;2.10;99.90;;;;;;4990741;28;20129;-74
2024/01/16 10:31:06;;;;;;;10.38;4.43;;;2.20;99.90;;;;;;4991901;28;20045;-74
2024/01/16 10:33:32;;;;;;;10.88;4.72;;;2.10;99.90;;;;;;4972188;28;20509;-73
2024/01/16 10:36:16;;;;;;;9.52;4.80;;;2.10;99.90;;;;;;4991311;28;20050;-74
2024/01/16 10:38:46;;;;;;;12.05;5.05;;;2.20;99.90;;;;;;4993793;28;20132;-73
2024/01/16 10:41:24;;;;;;;9.27;5.15;;;2.20;99.90;;;;;;4997089;28;20045;-74
2024/01/16 10:44:04;;;;;;;8.48;5.35;;;2.50;99.90;;;;;;4994553;28;20112;-74
2024/01/16 10:46:29;;;;;;;12.63;5.70;;;2.40;99.90;;;;;;4997098;28;20042;-73
2024/01/16 10:49:00;;;;;;;10.45;5.10;;;2.50;99.90;;;;;;4982029;28;20035;-73
2024/01/16 10:51:27;;;;;;;9.50;5.30;;;2.40;99.90;;;;;;4997979;28;20049;-73
2024/01/16 10:53:59;;;;;;;11.38;5.68;;;2.30;99.90;;;;;;5002847;28;20061;-73
2024/01/16 10:56:28;;;;;;;8.52;5.32;;;2.20;99.90;;;;;;4996692;28;20049;-73
2024/01/16 10:59:29;;;;;;;9.70;5.50;;;2.20;99.90;;;;;;4995438;28;20440;-73
2024/01/16 11:01:58;;;;;;;12.23;5.40;;;2.10;99.90;;;;;;4993747;28;20161;-73
2024/01/16 11:04:24;;;;;;;11.52;5.30;;;2.20;99.90;;;;;;4987695;28;20049;-73
2024/01/16 11:06:54;;;;;;;9.88;4.93;;;2.10;99.90;;;;;;4989198;28;20436;-72
2024/01/16 11:09:21;;;;;;;10.52;4.93;;;2.10;99.90;;;;;;4990872;28;20076;-72
2024/01/16 11:11:47;;;;;;;10.82;5.57;;;2.00;99.90;;;;;;4996086;28;20046;-72
2024/01/16 11:14:16;;;;;;;8.38;4.40;;;2.00;99.90;;;;;;5026240;28;20497;-72
2024/01/16 11:16:43;;;;;;;9.13;4.50;;;2.00;99.90;;;;;;4995333;28;20424;-72
2024/01/16 11:19:09;;;;;;;6.65;4.28;;;2.00;99.90;;;;;;4992200;28;20640;-72
2024/01/16 11:21:40;;;;;;;10.20;4.32;;;2.00;99.90;;;;;;4980179;28;20038;-73
2024/01/16 11:24:06;;;;;;;9.48;3.97;;;1.90;99.90;;;;;;4997770;28;20305;-72
2024/01/16 11:26:34;;;;;;;5.70;3.20;;;1.90;99.90;;;;;;4993986;28;20116;-72
2024/01/16 11:29:01;;;;;;;5.32;2.50;;;1.70;99.90;;;;;;4996981;28;20058;-72
2024/01/16 11:31:34;;;;;;;6.60;2.20;;;1.60;99.90;;;;;;4996513;28;20121;-72
2024/01/16 11:34:02;;;;;;;6.03;2.28;;;1.50;99.90;;;;;;5012044;28;20437;-72
2024/01/16 11:36:50;;;;;;;5.57;2.15;;;1.40;99.90;;;;;;4981926;28;20058;-72
2024/01/16 11:39:20;;;;;;;5.03;2.00;;;1.40;99.90;;;;;;4994638;28;20049;-72
2024/01/16 11:41:59;;;;;;;4.70;1.90;;;1.50;99.90;;;;;;4988785;28;20046;-72
2024/01/16 11:44:54;;;;;;;4.43;1.83;;;1.40;99.90;;;;;;4984387;28;20049;-72
2024/01/16 11:47:23;;;;;;;4.40;1.70;;;1.50;99.90;;;;;;5026485;28;20376;-73
2024/01/16 11:50:09;;;;;;;2.88;1.75;;;1.60;99.90;;;;;;4994119;28;20057;-73
2024/01/16 11:52:43;;;;;;;5.32;2.30;;;1.60;99.90;;;;;;4980909;28;20520;-73
2024/01/16 11:55:30;;;;;;;6.00;2.33;;;1.80;99.90;;;;;;5011484;28;20042;-73
2024/01/16 11:58:21;;;;;;;4.72;2.03;;;1.80;99.90;;;;;;4998787;28;20370;-73
2024/01/16 12:00:51;;;;;;;5.25;2.20;;;2.00;99.90;;;;;;5013163;28;20077;-73
2024/01/16 12:03:20;;;;;;;5.28;2.28;;;2.10;99.90;;;;;;4997781;28;20113;-73
2024/01/16 12:05:55;;;;;;;6.65;2.20;;;2.00;99.90;;;;;;4982810;28;20037;-73
2024/01/16 12:08:22;;;;;;;6.00;2.28;;;2.00;99.90;;;;;;4993085;28;20046;-73
2024/01/16 12:10:50;;;;;;;6.88;2.50;;;2.00;99.90;;;;;;4992990;28;20042;-73
2024/01/16 12:13:16;;;;;;;4.78;1.90;;;2.00;99.90;;;;;;4995934;28;20057;-73
2024/01/16 12:15:43;;;;;;;5.25;2.42;;;2.30;99.90;;;;;;5023572;28;20498;-74
2024/01/16 12:18:09;;;;;;;7.80;2.45;;;2.40;99.90;;;;;;4984555;28;20044;-73
2024/01/16 12:20:37;;;;;;;6.93;2.53;;;2.70;99.90;;;;;;4990196;28;20225;-74
2024/01/16 12:23:04;;;;;;;6.70;2.35;;;2.60;99.90;;;;;;4995369;28;20489;-73
2024/01/16 12:25:32;;;;;;;8.93;2.50;;;2.70;99.90;;;;;;4997742;28;20070;-73
2024/01/16 12:28:02;;;;;;;6.05;2.30;;;2.90;99.90;;;;;;5019995;28;20703;-73
2024/01/16 12:30:36;;;;;;;5.25;2.90;;;3.00;99.90;;;;;;4979566;28;20060;-74
2024/01/16 12:33:07;;;;;;;5.77;2.33;;;3.00;99.90;;;;;;4999276;28;20041;-73
2024/01/16 12:35:42;;;;;;;7.15;3.00;;;3.10;99.90;;;;;;4973043;28;20053;-74
2024/01/16 12:38:09;;;;;;;9.60;2.95;;;3.00;99.90;;;;;;4986980;28;20650;-74
2024/01/16 12:40:40;;;;;;;7.45;2.95;;;2.80;99.90;;;;;;4987561;28;20216;-74
2024/01/16 12:43:06;;;;;;;6.82;2.63;;;2.80;99.90;;;;;;4995419;28;20042;-74
2024/01/16 12:45:33;;;;;;;5.47;3.50;;;2.90;99.90;;;;;;4991218;28;20577;-74
2024/01/16 12:48:00;;;;;;;4.72;2.90;;;3.00;99.90;;;;;;4981226;28;20064;-74
2024/01/16 12:50:30;;;;;;;7.28;3.20;;;3.00;99.90;;;;;;4982283;28;20320;-74